Time;durP1;ratioP1;P1;durP2;ratioP2;P2;SDS_P1;SDS_P2;PMS_P1;PMS_P2;Temp;Humidity;BMP_temperature;BMP_pressure;BME280_temperature;BME280_humidity;BME280_pressure;Samples;Min_cycle;Max_cycle;Signal;HPM_P1;HPM_P2
2021/07/07 00:20:56;;;;;;;8.55;4.08;;;;;;;20.89;66.39;100171.78;20944315;82;100913;-85
2021/07/07 00:50:59;;;;;;;10.95;4.20;;;;;;;20.46;68.48;100156.86;20958071;82;338878;-84
2021/07/07 01:21:11;;;;;;;8.13;4.20;;;;;;;19.92;70.19;100178.55;20542890;83;99801;-84
2021/07/07 01:51:08;;;;;;;7.15;3.42;;;;;;;19.56;72.26;100208.14;20458503;84;2721123;-84
2021/07/07 02:21:13;;;;;;;6.73;3.30;;;;;;;19.37;73.70;100218.07;20510788;83;1544085;-86
2021/07/07 02:51:15;;;;;;;13.62;7.45;;;;;;;19.24;74.88;100249.34;20679914;83;100118;-84
2021/07/07 03:21:16;;;;;;;6.75;3.05;;;;;;;19.15;75.66;100256.91;20895790;82;99897;-85
2021/07/07 03:51:18;;;;;;;8.00;3.55;;;;;;;19.35;76.88;100295.88;21008446;82;99351;-85
2021/07/07 04:21:20;;;;;;;6.17;3.22;;;;;;;19.56;77.94;100310.03;20949424;82;129684;-84
2021/07/07 04:51:27;;;;;;;5.40;2.67;;;;;;;19.99;78.52;100331.99;20930456;81;99854;-85
2021/07/07 05:21:28;;;;;;;3.27;2.15;;;;;;;20.51;77.50;100367.39;20973744;81;147280;-84
2021/07/07 05:51:29;;;;;;;3.33;1.30;;;;;;;21.72;75.49;100387.64;20962444;82;2837497;-84
2021/07/07 06:21:31;;;;;;;2.00;1.15;;;;;;;25.30;65.52;100388.90;20964605;82;99721;-86
2021/07/07 06:51:40;;;;;;;3.70;1.40;;;;;;;27.10;58.37;100422.58;20985192;82;99752;-84
2021/07/07 07:21:44;;;;;;;1.95;1.40;;;;;;;28.20;55.13;100419.09;20941742;82;99284;-83
2021/07/07 07:51:46;;;;;;;1.90;0.95;;;;;;;29.92;51.06;100380.28;20888377;82;256577;-84
2021/07/07 08:21:50;;;;;;;2.55;1.00;;;;;;;31.84;46.56;100405.14;20983158;81;99640;-83
2021/07/07 08:51:51;;;;;;;1.60;0.77;;;;;;;34.18;43.93;100412.88;21007617;82;430394;-87
2021/07/07 09:22:06;;;;;;;4.35;1.10;;;;;;;36.44;39.36;100398.78;20918469;82;99741;-86
2021/07/07 09:52:07;;;;;;;3.35;1.35;;;;;;;37.95;36.99;100435.41;20960666;82;261755;-87
2021/07/07 10:22:11;;;;;;;4.35;1.50;;;;;;;39.96;34.67;100418.27;20929937;82;100770;-87
2021/07/07 10:52:20;;;;;;;6.15;1.82;;;;;;;38.56;31.74;100444.44;20952464;82;237039;-88
2021/07/07 11:22:24;;;;;;;5.15;1.50;;;;;;;35.02;35.82;100488.98;20896045;82;99745;-85
2021/07/07 11:52:26;;;;;;;3.92;1.17;;;;;;;32.06;38.18;100512.61;20792902;83;179824;-85
2021/07/07 12:22:28;;;;;;;4.30;1.40;;;;;;;28.80;40.69;100550.69;20846800;82;99634;-85
2021/07/07 12:52:34;;;;;;;10.25;2.37;;;;;;;27.36;44.56;100583.20;20775068;82;198776;-86
2021/07/07 13:22:50;;;;;;;8.05;2.60;;;;;;;25.51;51.25;100649.16;20826880;82;1088615;-92
2021/07/07 13:52:40;;;;;;;5.73;1.63;;;;;;;23.58;56.81;100677.02;20753069;82;2121808;-84
2021/07/07 14:22:42;;;;;;;2.83;1.30;;;;;;;22.11;60.11;100707.39;20976900;82;276709;-85
2021/07/07 14:52:43;;;;;;;3.02;1.30;;;;;;;21.44;62.53;100747.83;20996944;82;99805;-85
2021/07/07 15:22:45;;;;;;;1.98;1.20;;;;;;;20.95;64.56;100767.36;20947098;82;196213;-88
2021/07/07 15:52:56;;;;;;;3.83;1.37;;;;;;;20.47;66.57;100760.94;20820804;83;1541018;-84
2021/07/07 16:22:55;;;;;;;3.40;1.63;;;;;;;20.23;67.44;100769.30;20570358;83;397024;-87
2021/07/07 16:52:53;;;;;;;3.83;1.43;;;;;;;20.23;68.01;100825.20;20545998;84;99631;-88
2021/07/07 17:23:16;;;;;;;4.60;1.82;;;;;;;19.60;71.99;100814.71;20658855;82;99461;-93
2021/07/07 17:53:13;;;;;;;4.30;1.70;;;;;;;18.97;77.09;100803.27;20745408;82;761416;-88
2021/07/07 18:23:15;;;;;;;3.97;1.90;;;;;;;18.95;76.63;100861.50;20875390;82;236451;-94
2021/07/07 18:53:19;;;;;;;4.10;2.00;;;;;;;18.83;76.99;100919.27;20905753;81;1514226;-93
2021/07/07 19:23:23;;;;;;;5.52;2.12;;;;;;;18.61;78.02;100923.58;20882190;81;2206662;-92
2021/07/07 19:53:25;;;;;;;5.80;2.27;;;;;;;18.50;78.46;100938.85;20774992;81;7238602;-95
2021/07/07 20:23:33;;;;;;;4.62;2.40;;;;;;;18.30;79.49;100973.51;20877187;81;2422362;-95
2021/07/07 20:53:39;;;;;;;6.22;3.30;;;;;;;18.20;80.80;100999.49;20876981;81;3472129;-91
2021/07/07 21:23:41;;;;;;;7.47;2.97;;;;;;;18.09;80.91;100981.33;21018172;80;439812;-93
2021/07/07 21:53:43;;;;;;;6.50;2.80;;;;;;;18.03;81.77;101008.05;20845916;81;2446637;-93
2021/07/07 22:23:44;;;;;;;5.85;2.65;;;;;;;18.02;82.40;101017.00;20879877;82;99571;-92
2021/07/07 22:53:46;;;;;;;10.15;4.03;;;;;;;17.78;82.88;101011.66;20789791;82;3024991;-93
2021/07/07 23:23:47;;;;;;;8.95;3.10;;;;;;;17.40;84.07;101028.08;20886379;81;280321;-90
2021/07/07 23:53:48;;;;;;;8.30;3.47;;;;;;;17.03;84.89;101041.78;20936452;81;99770;-88
